sensor_id;sensor_type;location;lat;lon;timestamp;P1;durP1;ratioP1;P2;durP2;ratioP2
68168;SDS011;54981;50.206;15.978;2023-01-01T00:00:08;49.45;;;43.90;;
68168;SDS011;54981;50.206;15.978;2023-01-01T00:03:09;49.05;;;44.03;;
68168;SDS011;54981;50.206;15.978;2023-01-01T00:06:11;50.70;;;45.15;;
68168;SDS011;54981;50.206;15.978;2023-01-01T00:09:12;51.70;;;46.05;;
68168;SDS011;54981;50.206;15.978;2023-01-01T00:12:31;52.83;;;45.38;;
68168;SDS011;54981;50.206;15.978;2023-01-01T00:15:32;50.50;;;45.25;;
68168;SDS011;54981;50.206;15.978;2023-01-01T00:18:33;51.42;;;45.97;;
68168;SDS011;54981;50.206;15.978;2023-01-01T00:21:33;51.65;;;46.22;;
68168;SDS011;54981;50.206;15.978;2023-01-01T00:24:34;52.10;;;46.28;;
68168;SDS011;54981;50.206;15.978;2023-01-01T00:27:34;49.70;;;44.40;;
68168;SDS011;54981;50.206;15.978;2023-01-01T00:30:37;50.53;;;45.22;;
68168;SDS011;54981;50.206;15.978;2023-01-01T00:33:38;50.20;;;44.83;;
68168;SDS011;54981;50.206;15.978;2023-01-01T00:36:39;51.58;;;45.95;;
68168;SDS011;54981;50.206;15.978;2023-01-01T00:39:39;49.92;;;44.50;;
68168;SDS011;54981;50.206;15.978;2023-01-01T00:42:40;50.38;;;45.17;;
68168;SDS011;54981;50.206;15.978;2023-01-01T00:45:41;50.38;;;44.65;;
68168;SDS011;54981;50.206;15.978;2023-01-01T00:48:46;50.33;;;44.67;;
68168;SDS011;54981;50.206;15.978;2023-01-01T00:51:47;50.03;;;44.80;;
68168;SDS011;54981;50.206;15.978;2023-01-01T00:54:47;49.15;;;43.85;;
68168;SDS011;54981;50.206;15.978;2023-01-01T00:57:47;51.30;;;45.70;;
68168;SDS011;54981;50.206;15.978;2023-01-01T01:00:48;49.88;;;43.92;;
68168;SDS011;54981;50.206;15.978;2023-01-01T01:03:50;48.85;;;43.22;;
68168;SDS011;54981;50.206;15.978;2023-01-01T01:06:50;53.15;;;46.22;;
68168;SDS011;54981;50.206;15.978;2023-01-01T01:09:50;52.33;;;46.15;;
68168;SDS011;54981;50.206;15.978;2023-01-01T01:12:51;52.90;;;46.95;;
68168;SDS011;54981;50.206;15.978;2023-01-01T01:15:52;47.60;;;42.60;;
68168;SDS011;54981;50.206;15.978;2023-01-01T01:18:53;45.13;;;40.22;;
68168;SDS011;54981;50.206;15.978;2023-01-01T01:21:55;43.88;;;38.97;;
68168;SDS011;54981;50.206;15.978;2023-01-01T01:24:55;41.92;;;37.35;;
68168;SDS011;54981;50.206;15.978;2023-01-01T01:27:56;41.17;;;36.65;;
68168;SDS011;54981;50.206;15.978;2023-01-01T01:30:58;38.20;;;34.22;;
68168;SDS011;54981;50.206;15.978;2023-01-01T01:33:59;37.55;;;33.50;;
68168;SDS011;54981;50.206;15.978;2023-01-01T01:37:00;38.58;;;34.65;;
68168;SDS011;54981;50.206;15.978;2023-01-01T01:40:00;38.30;;;34.30;;
68168;SDS011;54981;50.206;15.978;2023-01-01T01:43:00;37.90;;;34.13;;
68168;SDS011;54981;50.206;15.978;2023-01-01T01:49:12;38.00;;;34.00;;
68168;SDS011;54981;50.206;15.978;2023-01-01T01:52:16;38.15;;;34.25;;
68168;SDS011;54981;50.206;15.978;2023-01-01T01:55:16;37.20;;;33.45;;
68168;SDS011;54981;50.206;15.978;2023-01-01T01:58:16;37.97;;;34.13;;
68168;SDS011;54981;50.206;15.978;2023-01-01T02:01:17;36.33;;;32.38;;
68168;SDS011;54981;50.206;15.978;2023-01-01T02:04:18;37.10;;;33.30;;
68168;SDS011;54981;50.206;15.978;2023-01-01T02:07:18;38.17;;;33.95;;
68168;SDS011;54981;50.206;15.978;2023-01-01T02:10:21;36.40;;;32.45;;
68168;SDS011;54981;50.206;15.978;2023-01-01T02:13:21;36.33;;;32.42;;
68168;SDS011;54981;50.206;15.978;2023-01-01T02:23:01;38.67;;;34.45;;
68168;SDS011;54981;50.206;15.978;2023-01-01T02:29:51;37.08;;;33.15;;
68168;SDS011;54981;50.206;15.978;2023-01-01T02:33:01;38.60;;;34.60;;
68168;SDS011;54981;50.206;15.978;2023-01-01T02:36:05;36.53;;;32.88;;
68168;SDS011;54981;50.206;15.978;2023-01-01T02:39:07;35.67;;;31.90;;
68168;SDS011;54981;50.206;15.978;2023-01-01T02:42:09;38.03;;;34.13;;
68168;SDS011;54981;50.206;15.978;2023-01-01T02:45:11;35.38;;;31.55;;
68168;SDS011;54981;50.206;15.978;2023-01-01T03:01:51;38.30;;;33.95;;
68168;SDS011;54981;50.206;15.978;2023-01-01T03:08:22;36.03;;;32.08;;
68168;SDS011;54981;50.206;15.978;2023-01-01T03:11:32;33.88;;;30.25;;
68168;SDS011;54981;50.206;15.978;2023-01-01T03:21:30;35.90;;;32.38;;
68168;SDS011;54981;50.206;15.978;2023-01-01T03:25:13;34.08;;;30.42;;
68168;SDS011;54981;50.206;15.978;2023-01-01T03:28:02;35.63;;;31.95;;
68168;SDS011;54981;50.206;15.978;2023-01-01T03:31:06;35.33;;;31.75;;
68168;SDS011;54981;50.206;15.978;2023-01-01T03:34:10;34.22;;;30.48;;
68168;SDS011;54981;50.206;15.978;2023-01-01T03:37:18;35.28;;;31.70;;
68168;SDS011;54981;50.206;15.978;2023-01-01T03:40:22;35.53;;;31.92;;
68168;SDS011;54981;50.206;15.978;2023-01-01T03:46:38;34.00;;;30.40;;
68168;SDS011;54981;50.206;15.978;2023-01-01T03:49:39;34.67;;;31.25;;
68168;SDS011;54981;50.206;15.978;2023-01-01T03:55:47;33.05;;;29.75;;
68168;SDS011;54981;50.206;15.978;2023-01-01T03:58:59;33.25;;;29.90;;
68168;SDS011;54981;50.206;15.978;2023-01-01T04:02:07;33.17;;;29.58;;
68168;SDS011;54981;50.206;15.978;2023-01-01T04:08:12;33.08;;;29.75;;
68168;SDS011;54981;50.206;15.978;2023-01-01T04:11:15;33.85;;;30.40;;
68168;SDS011;54981;50.206;15.978;2023-01-01T04:14:40;34.38;;;30.88;;
68168;SDS011;54981;50.206;15.978;2023-01-01T04:17:42;33.20;;;28.75;;
68168;SDS011;54981;50.206;15.978;2023-01-01T04:20:42;32.53;;;29.23;;
68168;SDS011;54981;50.206;15.978;2023-01-01T04:23:42;32.60;;;29.20;;
68168;SDS011;54981;50.206;15.978;2023-01-01T04:26:43;32.20;;;29.10;;
68168;SDS011;54981;50.206;15.978;2023-01-01T04:29:43;32.03;;;28.73;;
68168;SDS011;54981;50.206;15.978;2023-01-01T04:32:43;32.90;;;29.55;;
68168;SDS011;54981;50.206;15.978;2023-01-01T04:35:44;35.25;;;31.75;;
68168;SDS011;54981;50.206;15.978;2023-01-01T04:38:44;33.67;;;30.27;;
68168;SDS011;54981;50.206;15.978;2023-01-01T04:41:45;32.75;;;29.42;;
68168;SDS011;54981;50.206;15.978;2023-01-01T04:44:46;29.80;;;26.95;;
68168;SDS011;54981;50.206;15.978;2023-01-01T04:47:46;33.53;;;30.13;;
68168;SDS011;54981;50.206;15.978;2023-01-01T04:50:54;33.40;;;29.80;;
68168;SDS011;54981;50.206;15.978;2023-01-01T04:53:58;37.53;;;33.83;;
68168;SDS011;54981;50.206;15.978;2023-01-01T04:56:59;33.03;;;29.80;;
68168;SDS011;54981;50.206;15.978;2023-01-01T04:59:59;35.65;;;32.25;;
68168;SDS011;54981;50.206;15.978;2023-01-01T05:03:00;34.40;;;31.15;;
68168;SDS011;54981;50.206;15.978;2023-01-01T05:06:01;34.38;;;30.90;;
68168;SDS011;54981;50.206;15.978;2023-01-01T05:09:03;33.53;;;30.20;;
68168;SDS011;54981;50.206;15.978;2023-01-01T05:12:04;32.35;;;29.15;;
68168;SDS011;54981;50.206;15.978;2023-01-01T05:15:04;32.90;;;29.48;;
68168;SDS011;54981;50.206;15.978;2023-01-01T05:18:05;33.33;;;29.73;;
68168;SDS011;54981;50.206;15.978;2023-01-01T05:21:07;34.58;;;31.15;;
68168;SDS011;54981;50.206;15.978;2023-01-01T05:24:10;36.20;;;32.60;;
68168;SDS011;54981;50.206;15.978;2023-01-01T05:27:10;34.72;;;31.13;;
68168;SDS011;54981;50.206;15.978;2023-01-01T05:30:10;34.03;;;30.63;;
68168;SDS011;54981;50.206;15.978;2023-01-01T05:33:11;32.63;;;29.40;;
68168;SDS011;54981;50.206;15.978;2023-01-01T05:36:19;33.03;;;29.83;;
68168;SDS011;54981;50.206;15.978;2023-01-01T05:39:22;33.83;;;30.10;;
68168;SDS011;54981;50.206;15.978;2023-01-01T05:42:22;32.50;;;29.48;;
68168;SDS011;54981;50.206;15.978;2023-01-01T05:45:22;33.50;;;30.10;;
68168;SDS011;54981;50.206;15.978;2023-01-01T05:48:23;31.15;;;27.95;;
68168;SDS011;54981;50.206;15.978;2023-01-01T05:51:24;33.17;;;30.02;;
68168;SDS011;54981;50.206;15.978;2023-01-01T05:54:25;33.20;;;29.90;;
68168;SDS011;54981;50.206;15.978;2023-01-01T05:57:29;31.55;;;28.65;;
68168;SDS011;54981;50.206;15.978;2023-01-01T06:00:29;30.45;;;27.55;;
68168;SDS011;54981;50.206;15.978;2023-01-01T06:03:29;31.38;;;28.27;;
68168;SDS011;54981;50.206;15.978;2023-01-01T06:06:30;31.63;;;28.65;;
68168;SDS011;54981;50.206;15.978;2023-01-01T06:09:32;32.28;;;29.13;;
68168;SDS011;54981;50.206;15.978;2023-01-01T06:12:33;32.33;;;28.92;;
68168;SDS011;54981;50.206;15.978;2023-01-01T06:15:33;33.97;;;30.67;;
68168;SDS011;54981;50.206;15.978;2023-01-01T06:18:34;34.40;;;31.10;;
68168;SDS011;54981;50.206;15.978;2023-01-01T06:21:34;33.47;;;30.20;;
68168;SDS011;54981;50.206;15.978;2023-01-01T06:24:34;38.90;;;34.65;;
68168;SDS011;54981;50.206;15.978;2023-01-01T06:27:35;50.08;;;42.58;;
68168;SDS011;54981;50.206;15.978;2023-01-01T06:30:36;36.90;;;32.97;;
68168;SDS011;54981;50.206;15.978;2023-01-01T06:33:37;37.00;;;33.20;;
68168;SDS011;54981;50.206;15.978;2023-01-01T06:36:37;31.58;;;28.67;;
68168;SDS011;54981;50.206;15.978;2023-01-01T06:39:38;30.27;;;27.38;;
68168;SDS011;54981;50.206;15.978;2023-01-01T06:42:38;34.80;;;30.90;;
68168;SDS011;54981;50.206;15.978;2023-01-01T06:45:38;32.53;;;29.42;;
68168;SDS011;54981;50.206;15.978;2023-01-01T06:48:39;33.08;;;29.98;;
68168;SDS011;54981;50.206;15.978;2023-01-01T06:51:40;36.05;;;32.53;;
68168;SDS011;54981;50.206;15.978;2023-01-01T06:54:42;35.97;;;32.40;;
68168;SDS011;54981;50.206;15.978;2023-01-01T06:57:42;35.05;;;31.65;;
68168;SDS011;54981;50.206;15.978;2023-01-01T07:00:43;34.58;;;31.27;;
68168;SDS011;54981;50.206;15.978;2023-01-01T07:03:48;33.63;;;30.25;;
68168;SDS011;54981;50.206;15.978;2023-01-01T07:06:52;33.25;;;29.95;;
68168;SDS011;54981;50.206;15.978;2023-01-01T07:09:53;34.28;;;30.77;;
68168;SDS011;54981;50.206;15.978;2023-01-01T07:12:53;35.20;;;31.52;;
68168;SDS011;54981;50.206;15.978;2023-01-01T07:15:53;34.13;;;30.52;;
68168;SDS011;54981;50.206;15.978;2023-01-01T07:18:54;34.75;;;31.35;;
68168;SDS011;54981;50.206;15.978;2023-01-01T07:21:56;32.38;;;29.13;;
68168;SDS011;54981;50.206;15.978;2023-01-01T07:24:56;33.35;;;29.85;;
68168;SDS011;54981;50.206;15.978;2023-01-01T07:27:57;33.90;;;30.70;;
68168;SDS011;54981;50.206;15.978;2023-01-01T07:30:57;33.00;;;29.70;;
68168;SDS011;54981;50.206;15.978;2023-01-01T07:33:57;35.10;;;31.60;;
68168;SDS011;54981;50.206;15.978;2023-01-01T07:36:58;32.55;;;29.35;;
68168;SDS011;54981;50.206;15.978;2023-01-01T07:39:58;32.30;;;29.10;;
68168;SDS011;54981;50.206;15.978;2023-01-01T07:42:58;32.53;;;29.48;;
68168;SDS011;54981;50.206;15.978;2023-01-01T07:45:59;31.73;;;28.55;;
68168;SDS011;54981;50.206;15.978;2023-01-01T07:49:00;32.40;;;29.00;;
68168;SDS011;54981;50.206;15.978;2023-01-01T07:52:00;31.85;;;28.48;;
68168;SDS011;54981;50.206;15.978;2023-01-01T07:55:01;35.13;;;31.65;;
68168;SDS011;54981;50.206;15.978;2023-01-01T07:58:01;34.38;;;30.85;;
68168;SDS011;54981;50.206;15.978;2023-01-01T08:01:01;31.90;;;28.88;;
68168;SDS011;54981;50.206;15.978;2023-01-01T08:04:02;32.83;;;29.45;;
68168;SDS011;54981;50.206;15.978;2023-01-01T08:07:03;30.63;;;27.75;;
68168;SDS011;54981;50.206;15.978;2023-01-01T08:10:04;33.03;;;29.85;;
68168;SDS011;54981;50.206;15.978;2023-01-01T08:13:06;31.60;;;28.42;;
68168;SDS011;54981;50.206;15.978;2023-01-01T08:16:07;32.80;;;29.75;;
68168;SDS011;54981;50.206;15.978;2023-01-01T08:19:08;34.15;;;30.13;;
68168;SDS011;54981;50.206;15.978;2023-01-01T08:22:08;33.15;;;29.85;;
68168;SDS011;54981;50.206;15.978;2023-01-01T08:25:09;33.28;;;29.77;;
68168;SDS011;54981;50.206;15.978;2023-01-01T08:28:09;34.75;;;31.15;;
68168;SDS011;54981;50.206;15.978;2023-01-01T08:31:10;36.10;;;32.45;;
68168;SDS011;54981;50.206;15.978;2023-01-01T08:34:10;50.55;;;45.35;;
68168;SDS011;54981;50.206;15.978;2023-01-01T08:37:13;38.40;;;34.70;;
68168;SDS011;54981;50.206;15.978;2023-01-01T08:40:14;34.72;;;31.02;;
68168;SDS011;54981;50.206;15.978;2023-01-01T08:43:15;34.15;;;30.50;;
68168;SDS011;54981;50.206;15.978;2023-01-01T08:46:15;34.97;;;31.15;;
68168;SDS011;54981;50.206;15.978;2023-01-01T08:49:16;34.58;;;30.85;;
68168;SDS011;54981;50.206;15.978;2023-01-01T08:52:17;34.22;;;30.58;;
68168;SDS011;54981;50.206;15.978;2023-01-01T08:55:18;31.92;;;28.55;;
68168;SDS011;54981;50.206;15.978;2023-01-01T08:58:19;32.35;;;29.02;;
68168;SDS011;54981;50.206;15.978;2023-01-01T09:01:19;30.90;;;27.70;;
68168;SDS011;54981;50.206;15.978;2023-01-01T09:04:25;32.45;;;29.02;;
68168;SDS011;54981;50.206;15.978;2023-01-01T09:07:25;29.45;;;26.33;;
68168;SDS011;54981;50.206;15.978;2023-01-01T09:10:26;30.42;;;27.23;;
68168;SDS011;54981;50.206;15.978;2023-01-01T09:13:26;27.88;;;24.98;;
68168;SDS011;54981;50.206;15.978;2023-01-01T09:16:27;33.08;;;26.60;;
68168;SDS011;54981;50.206;15.978;2023-01-01T09:19:27;25.88;;;23.23;;
68168;SDS011;54981;50.206;15.978;2023-01-01T09:22:28;31.48;;;27.65;;
68168;SDS011;54981;50.206;15.978;2023-01-01T09:25:29;33.72;;;30.20;;
68168;SDS011;54981;50.206;15.978;2023-01-01T09:28:29;26.67;;;23.58;;
68168;SDS011;54981;50.206;15.978;2023-01-01T09:31:30;25.27;;;22.80;;
68168;SDS011;54981;50.206;15.978;2023-01-01T09:34:30;25.45;;;22.90;;
68168;SDS011;54981;50.206;15.978;2023-01-01T09:37:30;27.08;;;23.92;;
68168;SDS011;54981;50.206;15.978;2023-01-01T09:40:53;23.73;;;20.98;;
68168;SDS011;54981;50.206;15.978;2023-01-01T09:44:21;22.92;;;20.48;;
68168;SDS011;54981;50.206;15.978;2023-01-01T09:50:42;26.15;;;23.45;;
68168;SDS011;54981;50.206;15.978;2023-01-01T09:53:47;25.33;;;21.83;;
68168;SDS011;54981;50.206;15.978;2023-01-01T09:56:55;27.77;;;23.67;;
68168;SDS011;54981;50.206;15.978;2023-01-01T09:59:57;27.20;;;22.20;;
68168;SDS011;54981;50.206;15.978;2023-01-01T10:06:22;25.55;;;20.48;;
68168;SDS011;54981;50.206;15.978;2023-01-01T10:16:14;23.55;;;20.10;;
68168;SDS011;54981;50.206;15.978;2023-01-01T10:19:36;24.40;;;20.23;;
68168;SDS011;54981;50.206;15.978;2023-01-01T10:22:41;22.83;;;18.38;;
68168;SDS011;54981;50.206;15.978;2023-01-01T10:25:45;22.63;;;18.52;;
68168;SDS011;54981;50.206;15.978;2023-01-01T10:28:50;23.10;;;18.58;;
68168;SDS011;54981;50.206;15.978;2023-01-01T10:32:05;20.27;;;17.23;;
68168;SDS011;54981;50.206;15.978;2023-01-01T10:35:44;20.42;;;18.05;;
68168;SDS011;54981;50.206;15.978;2023-01-01T10:38:48;20.60;;;18.40;;
68168;SDS011;54981;50.206;15.978;2023-01-01T10:41:50;21.67;;;17.15;;
68168;SDS011;54981;50.206;15.978;2023-01-01T10:44:50;20.67;;;18.17;;
68168;SDS011;54981;50.206;15.978;2023-01-01T10:51:18;19.85;;;17.25;;
68168;SDS011;54981;50.206;15.978;2023-01-01T10:54:39;19.92;;;17.83;;
68168;SDS011;54981;50.206;15.978;2023-01-01T10:57:40;19.70;;;16.00;;
68168;SDS011;54981;50.206;15.978;2023-01-01T11:00:40;22.17;;;17.15;;
68168;SDS011;54981;50.206;15.978;2023-01-01T11:07:30;20.48;;;17.75;;
68168;SDS011;54981;50.206;15.978;2023-01-01T11:10:33;23.48;;;17.77;;
68168;SDS011;54981;50.206;15.978;2023-01-01T11:13:33;19.25;;;16.98;;
68168;SDS011;54981;50.206;15.978;2023-01-01T11:16:34;22.42;;;17.33;;
68168;SDS011;54981;50.206;15.978;2023-01-01T11:19:39;20.90;;;18.38;;
68168;SDS011;54981;50.206;15.978;2023-01-01T11:22:41;20.63;;;17.25;;
68168;SDS011;54981;50.206;15.978;2023-01-01T11:26:04;22.50;;;19.10;;
68168;SDS011;54981;50.206;15.978;2023-01-01T11:32:16;20.10;;;17.92;;
68168;SDS011;54981;50.206;15.978;2023-01-01T11:35:21;19.33;;;17.33;;
68168;SDS011;54981;50.206;15.978;2023-01-01T11:38:24;20.63;;;18.42;;
68168;SDS011;54981;50.206;15.978;2023-01-01T11:41:25;19.42;;;17.17;;
68168;SDS011;54981;50.206;15.978;2023-01-01T11:47:37;23.02;;;19.13;;
68168;SDS011;54981;50.206;15.978;2023-01-01T11:50:39;19.48;;;17.40;;
68168;SDS011;54981;50.206;15.978;2023-01-01T11:53:47;19.75;;;17.27;;
68168;SDS011;54981;50.206;15.978;2023-01-01T11:56:48;21.52;;;17.95;;
68168;SDS011;54981;50.206;15.978;2023-01-01T11:59:58;20.80;;;18.60;;
68168;SDS011;54981;50.206;15.978;2023-01-01T12:03:05;19.48;;;17.25;;
68168;SDS011;54981;50.206;15.978;2023-01-01T12:12:52;22.58;;;20.20;;
68168;SDS011;54981;50.206;15.978;2023-01-01T12:16:01;22.80;;;19.83;;
68168;SDS011;54981;50.206;15.978;2023-01-01T12:19:30;19.95;;;17.77;;
68168;SDS011;54981;50.206;15.978;2023-01-01T12:22:38;19.70;;;17.70;;
68168;SDS011;54981;50.206;15.978;2023-01-01T12:25:47;21.17;;;18.98;;
68168;SDS011;54981;50.206;15.978;2023-01-01T12:33:06;22.30;;;19.90;;
68168;SDS011;54981;50.206;15.978;2023-01-01T12:36:21;19.08;;;16.15;;
68168;SDS011;54981;50.206;15.978;2023-01-01T12:46:11;18.80;;;16.27;;
68168;SDS011;54981;50.206;15.978;2023-01-01T12:59:21;21.80;;;19.35;;
68168;SDS011;54981;50.206;15.978;2023-01-01T13:02:27;20.60;;;18.40;;
68168;SDS011;54981;50.206;15.978;2023-01-01T13:05:38;21.53;;;18.83;;
68168;SDS011;54981;50.206;15.978;2023-01-01T13:08:41;21.55;;;19.25;;
68168;SDS011;54981;50.206;15.978;2023-01-01T13:11:44;21.48;;;19.17;;
68168;SDS011;54981;50.206;15.978;2023-01-01T13:14:48;24.70;;;21.98;;
68168;SDS011;54981;50.206;15.978;2023-01-01T13:17:51;29.05;;;24.52;;
68168;SDS011;54981;50.206;15.978;2023-01-01T13:23:53;27.97;;;24.90;;
68168;SDS011;54981;50.206;15.978;2023-01-01T13:26:57;32.90;;;26.58;;
68168;SDS011;54981;50.206;15.978;2023-01-01T13:29:57;29.67;;;24.25;;
68168;SDS011;54981;50.206;15.978;2023-01-01T13:39:49;29.42;;;23.02;;
68168;SDS011;54981;50.206;15.978;2023-01-01T13:45:53;25.75;;;21.30;;
68168;SDS011;54981;50.206;15.978;2023-01-01T14:02:52;26.63;;;23.92;;
68168;SDS011;54981;50.206;15.978;2023-01-01T14:05:58;52.33;;;45.42;;
68168;SDS011;54981;50.206;15.978;2023-01-01T14:09:06;34.65;;;31.42;;
68168;SDS011;54981;50.206;15.978;2023-01-01T14:12:08;31.95;;;28.95;;
68168;SDS011;54981;50.206;15.978;2023-01-01T14:21:30;24.60;;;21.38;;
68168;SDS011;54981;50.206;15.978;2023-01-01T14:24:33;24.08;;;21.27;;
68168;SDS011;54981;50.206;15.978;2023-01-01T14:27:39;24.33;;;21.77;;
68168;SDS011;54981;50.206;15.978;2023-01-01T14:30:42;24.70;;;21.95;;
68168;SDS011;54981;50.206;15.978;2023-01-01T14:33:44;26.38;;;22.25;;
68168;SDS011;54981;50.206;15.978;2023-01-01T14:36:51;25.48;;;22.88;;
68168;SDS011;54981;50.206;15.978;2023-01-01T14:40:14;27.25;;;23.70;;
68168;SDS011;54981;50.206;15.978;2023-01-01T14:43:26;28.23;;;24.27;;
68168;SDS011;54981;50.206;15.978;2023-01-01T14:46:27;28.83;;;24.40;;
68168;SDS011;54981;50.206;15.978;2023-01-01T14:49:30;30.08;;;25.77;;
68168;SDS011;54981;50.206;15.978;2023-01-01T14:52:33;31.48;;;26.58;;
68168;SDS011;54981;50.206;15.978;2023-01-01T14:55:38;32.58;;;27.95;;
68168;SDS011;54981;50.206;15.978;2023-01-01T14:58:42;31.35;;;27.98;;
68168;SDS011;54981;50.206;15.978;2023-01-01T15:01:42;36.03;;;29.77;;
68168;SDS011;54981;50.206;15.978;2023-01-01T15:04:43;30.38;;;27.08;;
68168;SDS011;54981;50.206;15.978;2023-01-01T15:07:43;32.22;;;27.48;;
68168;SDS011;54981;50.206;15.978;2023-01-01T15:10:56;33.90;;;29.60;;
68168;SDS011;54981;50.206;15.978;2023-01-01T15:14:00;34.33;;;29.92;;
68168;SDS011;54981;50.206;15.978;2023-01-01T15:17:05;33.75;;;29.75;;
68168;SDS011;54981;50.206;15.978;2023-01-01T15:20:20;34.10;;;28.80;;
68168;SDS011;54981;50.206;15.978;2023-01-01T15:23:22;37.78;;;31.27;;
68168;SDS011;54981;50.206;15.978;2023-01-01T15:26:29;36.95;;;33.25;;
68168;SDS011;54981;50.206;15.978;2023-01-01T15:29:39;45.75;;;35.53;;
68168;SDS011;54981;50.206;15.978;2023-01-01T15:32:46;38.42;;;32.72;;
68168;SDS011;54981;50.206;15.978;2023-01-01T15:35:47;52.08;;;41.05;;
68168;SDS011;54981;50.206;15.978;2023-01-01T15:38:49;54.25;;;44.58;;
68168;SDS011;54981;50.206;15.978;2023-01-01T15:41:51;45.45;;;38.47;;
68168;SDS011;54981;50.206;15.978;2023-01-01T15:44:52;42.45;;;35.33;;
68168;SDS011;54981;50.206;15.978;2023-01-01T15:48:36;39.05;;;34.78;;
68168;SDS011;54981;50.206;15.978;2023-01-01T15:51:20;35.60;;;31.77;;
68168;SDS011;54981;50.206;15.978;2023-01-01T15:54:23;35.75;;;31.20;;
68168;SDS011;54981;50.206;15.978;2023-01-01T15:57:24;35.17;;;31.35;;
68168;SDS011;54981;50.206;15.978;2023-01-01T16:00:29;34.03;;;29.55;;
68168;SDS011;54981;50.206;15.978;2023-01-01T16:03:34;36.13;;;32.30;;
68168;SDS011;54981;50.206;15.978;2023-01-01T16:06:43;34.08;;;29.73;;
68168;SDS011;54981;50.206;15.978;2023-01-01T16:09:48;35.20;;;31.15;;
68168;SDS011;54981;50.206;15.978;2023-01-01T16:12:50;33.08;;;29.55;;
68168;SDS011;54981;50.206;15.978;2023-01-01T16:15:51;34.45;;;29.80;;
68168;SDS011;54981;50.206;15.978;2023-01-01T16:18:54;33.13;;;29.20;;
68168;SDS011;54981;50.206;15.978;2023-01-01T16:21:55;118.60;;;77.80;;
68168;SDS011;54981;50.206;15.978;2023-01-01T16:24:56;118.70;;;79.07;;
68168;SDS011;54981;50.206;15.978;2023-01-01T16:27:56;53.83;;;42.80;;
68168;SDS011;54981;50.206;15.978;2023-01-01T16:30:57;47.53;;;38.08;;
68168;SDS011;54981;50.206;15.978;2023-01-01T16:33:57;46.15;;;38.00;;
68168;SDS011;54981;50.206;15.978;2023-01-01T16:36:58;38.03;;;31.77;;
68168;SDS011;54981;50.206;15.978;2023-01-01T16:39:58;38.17;;;32.28;;
68168;SDS011;54981;50.206;15.978;2023-01-01T16:42:59;36.45;;;30.70;;
68168;SDS011;54981;50.206;15.978;2023-01-01T16:45:59;36.28;;;31.10;;
68168;SDS011;54981;50.206;15.978;2023-01-01T16:49:00;38.50;;;32.17;;
68168;SDS011;54981;50.206;15.978;2023-01-01T16:52:00;36.20;;;31.10;;
68168;SDS011;54981;50.206;15.978;2023-01-01T16:55:02;38.13;;;33.78;;
68168;SDS011;54981;50.206;15.978;2023-01-01T16:58:02;43.33;;;37.42;;
68168;SDS011;54981;50.206;15.978;2023-01-01T17:01:03;46.70;;;40.20;;
68168;SDS011;54981;50.206;15.978;2023-01-01T17:04:03;39.33;;;33.63;;
68168;SDS011;54981;50.206;15.978;2023-01-01T17:07:03;35.25;;;30.90;;
68168;SDS011;54981;50.206;15.978;2023-01-01T17:10:04;40.70;;;34.83;;
68168;SDS011;54981;50.206;15.978;2023-01-01T17:13:05;36.80;;;32.83;;
68168;SDS011;54981;50.206;15.978;2023-01-01T17:16:06;36.08;;;31.60;;
68168;SDS011;54981;50.206;15.978;2023-01-01T17:19:08;37.47;;;30.92;;
68168;SDS011;54981;50.206;15.978;2023-01-01T17:22:10;38.85;;;33.38;;
68168;SDS011;54981;50.206;15.978;2023-01-01T17:25:11;39.05;;;32.78;;
68168;SDS011;54981;50.206;15.978;2023-01-01T17:28:11;41.35;;;33.63;;
68168;SDS011;54981;50.206;15.978;2023-01-01T17:31:13;39.38;;;33.10;;
68168;SDS011;54981;50.206;15.978;2023-01-01T17:34:15;40.47;;;34.70;;
68168;SDS011;54981;50.206;15.978;2023-01-01T17:37:15;48.55;;;37.75;;
68168;SDS011;54981;50.206;15.978;2023-01-01T17:40:16;46.65;;;38.88;;
68168;SDS011;54981;50.206;15.978;2023-01-01T17:43:16;41.08;;;33.10;;
68168;SDS011;54981;50.206;15.978;2023-01-01T17:46:18;38.45;;;33.13;;
68168;SDS011;54981;50.206;15.978;2023-01-01T17:49:22;42.55;;;34.88;;
68168;SDS011;54981;50.206;15.978;2023-01-01T17:52:22;43.15;;;35.22;;
68168;SDS011;54981;50.206;15.978;2023-01-01T17:55:22;36.00;;;32.10;;
68168;SDS011;54981;50.206;15.978;2023-01-01T17:58:23;35.97;;;32.17;;
68168;SDS011;54981;50.206;15.978;2023-01-01T18:01:28;35.10;;;30.70;;
68168;SDS011;54981;50.206;15.978;2023-01-01T18:04:29;40.22;;;32.47;;
68168;SDS011;54981;50.206;15.978;2023-01-01T18:07:30;36.88;;;32.88;;
68168;SDS011;54981;50.206;15.978;2023-01-01T18:10:31;39.40;;;34.90;;
68168;SDS011;54981;50.206;15.978;2023-01-01T18:13:31;34.28;;;30.58;;
68168;SDS011;54981;50.206;15.978;2023-01-01T18:16:33;41.58;;;33.70;;
68168;SDS011;54981;50.206;15.978;2023-01-01T18:19:35;45.30;;;39.15;;
68168;SDS011;54981;50.206;15.978;2023-01-01T18:22:37;43.03;;;38.58;;
68168;SDS011;54981;50.206;15.978;2023-01-01T18:25:38;36.25;;;32.47;;
68168;SDS011;54981;50.206;15.978;2023-01-01T18:28:38;35.60;;;31.88;;
68168;SDS011;54981;50.206;15.978;2023-01-01T18:31:39;40.28;;;34.55;;
68168;SDS011;54981;50.206;15.978;2023-01-01T18:34:39;37.65;;;32.53;;
68168;SDS011;54981;50.206;15.978;2023-01-01T18:37:39;37.20;;;33.30;;
68168;SDS011;54981;50.206;15.978;2023-01-01T18:40:42;34.67;;;30.98;;
68168;SDS011;54981;50.206;15.978;2023-01-01T18:43:50;33.70;;;30.05;;
68168;SDS011;54981;50.206;15.978;2023-01-01T18:53:24;37.20;;;33.08;;
68168;SDS011;54981;50.206;15.978;2023-01-01T18:56:25;38.50;;;33.70;;
68168;SDS011;54981;50.206;15.978;2023-01-01T18:59:27;37.50;;;32.55;;
68168;SDS011;54981;50.206;15.978;2023-01-01T19:02:43;43.30;;;36.70;;
68168;SDS011;54981;50.206;15.978;2023-01-01T19:05:47;36.42;;;31.90;;
68168;SDS011;54981;50.206;15.978;2023-01-01T19:08:48;36.08;;;32.08;;
68168;SDS011;54981;50.206;15.978;2023-01-01T19:11:50;39.55;;;35.42;;
68168;SDS011;54981;50.206;15.978;2023-01-01T19:14:54;39.25;;;33.80;;
68168;SDS011;54981;50.206;15.978;2023-01-01T19:17:55;40.47;;;34.08;;
68168;SDS011;54981;50.206;15.978;2023-01-01T19:24:21;37.75;;;32.70;;
68168;SDS011;54981;50.206;15.978;2023-01-01T19:27:30;36.95;;;32.80;;
68168;SDS011;54981;50.206;15.978;2023-01-01T19:30:33;38.88;;;34.58;;
68168;SDS011;54981;50.206;15.978;2023-01-01T19:33:34;40.45;;;35.42;;
68168;SDS011;54981;50.206;15.978;2023-01-01T19:36:34;38.38;;;34.20;;
68168;SDS011;54981;50.206;15.978;2023-01-01T19:39:34;37.17;;;33.15;;
68168;SDS011;54981;50.206;15.978;2023-01-01T19:42:35;38.08;;;32.03;;
68168;SDS011;54981;50.206;15.978;2023-01-01T19:45:36;36.17;;;32.25;;
68168;SDS011;54981;50.206;15.978;2023-01-01T19:48:36;37.95;;;31.75;;
68168;SDS011;54981;50.206;15.978;2023-01-01T19:51:36;36.60;;;32.25;;
68168;SDS011;54981;50.206;15.978;2023-01-01T19:54:37;36.83;;;32.50;;
68168;SDS011;54981;50.206;15.978;2023-01-01T19:57:37;41.08;;;33.65;;